26AR weather

Fly "N" K Airport
Searcy, Arkansas, United States

Public forecast

Using degrees Fahrenheit for public forecast. Weather courtesy of forecast.io.

Closest aviation weather report (METAR) to Fly "N" K Airport

Closest report is Searcy Municipal Airport, 3.5 nm (6.4 km) E. Retrieved 2020/01/24 04:24 UTC (2 minutes ago):

KSRC 240424Z AUTO 22004KT 3SM BR FEW012 02/02 A2995 RMK AO2 FZRANO

Closest aviation forecast (TAF) to Fly "N" K Airport

Closest forecast is Little Rock Air Force Base, 24.6 nm (45.5 km) SW. Retrieved 2020-01-24 23:06 UTC (0 seconds ago):

TAF KLRF 232300Z 2323/2505 VRB06KT 9999 OVC008 620089 QNH2992INS BECMG 2404/2405 VRB06KT 9999 OVC015 620159 QNH2989INS BECMG 2415/2416 28012G18KT 9999 BKN030 QNH3000INS BECMG 2419/2420 29015G20KT 9999 BKN030 QNH3000INS BECMG 2423/2424 28009KT 9999 BKN020 QNH3003INS TX07/2420Z TN03/2412Z